Oljato, Arizona
Current Conditions -  °F | °C
As of 1:53 PM on Thursday 23 Oct 2014 (Local Time) from KPGA Reporting Station
Clear Clear  
Wind Chill: 72°   Ceiling: Unl
Heat Index: 72°   Visibility: 10mi
Dew Point: 30°   Wind: 6mph
Humidity: 21%   Direction: 360°N
Pressure: 30.19"   Gusts: NA
Location:  36.6859°N, 110.268°W
Report Text: KPGA 231953Z AUTO 36005KT 10SM CLR 22/M01 A3019 RMK AO2 SLP174 T02221011
Loading
Personal Weather Stations






























Interactive Weather Map
Tropical Storm Tracking
New forecast layout! Learn more

10-Day Weather Forecast

Advertisements
Track Severe Weather on mobile